createdAt,value
2019-02-25T00:01:01.170Z,29.23
2019-02-25T00:03:27.424Z,26.55
2019-02-25T00:05:53.743Z,29.60
2019-02-25T00:08:20.007Z,28.45
2019-02-25T00:10:46.392Z,28.00
2019-02-25T00:13:12.718Z,28.55
2019-02-25T00:15:39.023Z,27.82
2019-02-25T00:18:05.325Z,29.12
2019-02-25T00:20:31.612Z,28.75
2019-02-25T00:22:58.242Z,29.15
2019-02-25T00:25:24.685Z,28.15
2019-02-25T00:27:51.024Z,29.57
2019-02-25T00:30:17.350Z,28.98
2019-02-25T00:32:43.601Z,31.27
2019-02-25T00:35:10.112Z,31.00
2019-02-25T00:37:36.394Z,30.97
2019-02-25T00:40:05.457Z,28.67
2019-02-25T00:42:32.058Z,30.40
2019-02-25T00:44:58.472Z,30.15
2019-02-25T00:47:24.723Z,29.57
2019-02-25T00:49:50.988Z,29.32
2019-02-25T00:52:17.532Z,29.20
2019-02-25T00:54:43.851Z,29.42
2019-02-25T00:57:10.109Z,29.25
2019-02-25T00:59:36.370Z,29.98
2019-02-25T01:02:02.709Z,28.20
2019-02-25T01:04:28.980Z,29.30
2019-02-25T01:06:55.269Z,29.40
2019-02-25T01:09:21.731Z,30.32
2019-02-25T01:11:48.024Z,30.17
2019-02-25T01:14:14.446Z,28.95
2019-02-25T01:16:40.942Z,30.43
2019-02-25T01:19:07.179Z,28.02
2019-02-25T01:21:33.524Z,28.85
2019-02-25T01:23:59.798Z,31.20
2019-02-25T01:26:26.130Z,28.98
2019-02-25T01:28:52.394Z,28.52
2019-02-25T01:31:18.723Z,29.00
2019-02-25T01:33:44.987Z,29.35
2019-02-25T01:36:11.276Z,30.45
2019-02-25T01:38:37.744Z,29.70
2019-02-25T01:41:04.040Z,28.20
2019-02-25T01:43:30.326Z,27.98
2019-02-25T01:45:56.679Z,26.48
2019-02-25T01:48:22.992Z,29.70
2019-02-25T01:50:49.254Z,31.33
2019-02-25T01:53:15.635Z,31.62
2019-02-25T01:55:41.896Z,31.17
2019-02-25T01:58:08.184Z,29.90
2019-02-25T02:00:34.466Z,31.33
2019-02-25T02:03:00.886Z,30.25
2019-02-25T02:05:27.143Z,31.90
2019-02-25T02:07:53.474Z,30.50
2019-02-25T02:10:19.797Z,31.07
2019-02-25T02:12:46.183Z,31.05
2019-02-25T02:15:17.337Z,27.65
2019-02-25T02:17:43.608Z,30.30
2019-02-25T02:20:12.109Z,29.25
2019-02-25T02:22:38.340Z,28.52
2019-02-25T02:25:06.416Z,30.25
2019-02-25T02:27:32.612Z,28.30
2019-02-25T02:29:58.869Z,27.95
2019-02-25T02:32:25.400Z,28.47
2019-02-25T02:34:51.723Z,28.52
2019-02-25T02:37:18.028Z,26.85
2019-02-25T02:39:44.266Z,27.25
2019-02-25T02:42:18.525Z,28.30
2019-02-25T02:44:47.323Z,27.30
2019-02-25T02:47:40.236Z,26.27
2019-02-25T02:50:12.598Z,28.57
2019-02-25T02:52:38.899Z,26.87
2019-02-25T02:55:06.172Z,26.27
2019-02-25T02:57:32.415Z,25.35
2019-02-25T02:59:58.692Z,27.37
2019-02-25T03:02:24.947Z,26.35
2019-02-25T03:04:51.416Z,26.05
2019-02-25T03:07:17.777Z,26.30
2019-02-25T03:09:44.125Z,25.12
2019-02-25T03:12:10.432Z,24.95
2019-02-25T03:14:36.683Z,24.65
2019-02-25T03:17:02.962Z,27.35
2019-02-25T03:19:29.214Z,25.08
2019-02-25T03:21:55.554Z,25.08
2019-02-25T03:24:21.862Z,27.27
2019-02-25T03:26:48.231Z,25.57
2019-02-25T03:29:17.071Z,26.73
2019-02-25T03:31:43.320Z,25.72
2019-02-25T03:34:09.639Z,25.97
2019-02-25T03:36:35.919Z,27.22
2019-02-25T03:39:03.665Z,28.02
2019-02-25T03:41:29.842Z,27.98
2019-02-25T03:43:56.086Z,28.27
2019-02-25T03:46:22.361Z,24.92
2019-02-25T03:48:48.616Z,27.10
2019-02-25T03:51:14.887Z,26.35
2019-02-25T03:53:41.126Z,27.25
2019-02-25T03:56:07.401Z,26.52
2019-02-25T03:58:33.711Z,26.17
2019-02-25T04:00:59.997Z,26.20
2019-02-25T04:03:26.227Z,26.00
2019-02-25T04:05:52.531Z,26.77
2019-02-25T04:08:18.785Z,27.25
2019-02-25T04:10:45.046Z,28.20
2019-02-25T04:13:11.330Z,26.37
2019-02-25T04:15:39.475Z,27.42
2019-02-25T04:18:06.177Z,27.10
2019-02-25T04:20:32.401Z,26.05
2019-02-25T04:22:58.674Z,28.10
2019-02-25T04:25:24.911Z,27.00
2019-02-25T04:27:51.246Z,26.48
2019-02-25T04:30:17.527Z,23.73
2019-02-25T04:32:43.813Z,25.95
2019-02-25T04:35:11.251Z,27.30
2019-02-25T04:37:37.543Z,27.32
2019-02-25T04:40:06.798Z,26.70
2019-02-25T04:42:33.072Z,28.60
2019-02-25T04:44:59.357Z,26.93
2019-02-25T04:47:25.640Z,25.77
2019-02-25T04:49:52.094Z,27.30
2019-02-25T04:52:18.384Z,26.73
2019-02-25T04:54:44.716Z,26.05
2019-02-25T04:57:10.989Z,25.80
2019-02-25T04:59:37.347Z,23.22
2019-02-25T05:02:03.733Z,26.17
2019-02-25T05:04:30.085Z,25.80
2019-02-25T05:06:56.793Z,25.40
2019-02-25T05:09:23.110Z,25.72
2019-02-25T05:11:49.486Z,26.62
2019-02-25T05:14:15.715Z,25.43
2019-02-25T05:16:41.999Z,24.10
2019-02-25T05:19:08.241Z,23.57
2019-02-25T05:21:34.509Z,25.82
2019-02-25T05:24:00.792Z,24.45
2019-02-25T05:26:27.121Z,26.37
2019-02-25T05:28:53.358Z,26.05
2019-02-25T05:31:19.632Z,25.88
2019-02-25T05:33:45.916Z,25.12
2019-02-25T05:36:12.234Z,25.35
2019-02-25T05:38:38.507Z,24.87
2019-02-25T05:41:04.708Z,26.07
2019-02-25T05:43:31.018Z,27.22
2019-02-25T05:45:57.254Z,22.32
2019-02-25T05:48:23.496Z,25.08
2019-02-25T05:50:49.921Z,25.57
2019-02-25T05:53:16.195Z,23.22
2019-02-25T05:55:42.504Z,25.12
2019-02-25T05:58:08.743Z,23.80
2019-02-25T06:00:35.871Z,24.77
2019-02-25T06:03:02.165Z,24.15
2019-02-25T06:05:28.494Z,26.17
2019-02-25T06:07:55.110Z,25.52
2019-02-25T06:10:21.512Z,24.05
2019-02-25T06:12:47.980Z,23.22
2019-02-25T06:15:18.312Z,26.55
2019-02-25T06:17:44.556Z,25.77
2019-02-25T06:20:15.269Z,25.48
2019-02-25T06:22:41.594Z,28.10
2019-02-25T06:25:15.406Z,14.75
2019-02-25T06:27:42.090Z,34.78
2019-02-25T06:30:22.466Z,31.75
2019-02-25T06:32:48.739Z,29.80
2019-02-25T06:35:14.980Z,27.17
2019-02-25T06:37:41.498Z,27.48
2019-02-25T06:40:10.252Z,25.25
2019-02-25T06:42:36.517Z,27.73
2019-02-25T06:45:06.514Z,24.80
2019-02-25T06:47:32.724Z,27.00
2019-02-25T06:49:58.982Z,27.48
2019-02-25T06:52:25.398Z,28.07
2019-02-25T06:54:51.662Z,26.52
2019-02-25T06:57:17.956Z,28.40
2019-02-25T06:59:44.338Z,28.83
2019-02-25T07:02:11.038Z,27.22
2019-02-25T07:04:39.578Z,26.23
2019-02-25T07:07:07.893Z,25.85
2019-02-25T07:09:45.988Z,28.45
2019-02-25T07:12:17.183Z,27.05
2019-02-25T07:14:47.367Z,28.02
2019-02-25T07:17:24.756Z,28.02
2019-02-25T07:19:52.979Z,28.73
2019-02-25T07:22:39.627Z,28.52
2019-02-25T07:25:08.632Z,27.00
2019-02-25T07:27:53.554Z,24.77
2019-02-25T07:30:24.516Z,27.85
2019-02-25T07:32:58.704Z,28.70
2019-02-25T07:35:26.886Z,25.62
2019-02-25T07:38:01.135Z,26.48
2019-02-25T07:40:38.279Z,27.32
2019-02-25T07:43:09.650Z,26.55
2019-02-25T07:45:43.677Z,25.27
2019-02-25T07:48:20.888Z,27.05
2019-02-25T07:51:01.314Z,27.95
2019-02-25T07:53:35.650Z,28.17
2019-02-25T07:56:10.022Z,26.20
2019-02-25T07:58:38.205Z,27.13
2019-02-25T08:01:06.394Z,25.82
2019-02-25T08:03:34.808Z,27.48
2019-02-25T08:06:19.556Z,25.10
2019-02-25T08:09:11.352Z,25.48
2019-02-25T08:11:48.589Z,25.45
2019-02-25T08:14:16.804Z,26.33
2019-02-25T08:16:50.695Z,27.37
2019-02-25T08:19:33.966Z,27.32
2019-02-25T08:22:02.142Z,29.30
2019-02-25T08:24:39.122Z,29.72
2019-02-25T08:27:16.423Z,28.45
2019-02-25T08:29:50.505Z,28.57
2019-02-25T08:32:35.240Z,28.47
2019-02-25T08:35:12.393Z,27.13
2019-02-25T08:37:47.323Z,27.75
2019-02-25T08:40:31.312Z,30.35
2019-02-25T08:42:59.336Z,29.87
2019-02-25T08:45:36.757Z,29.52
2019-02-25T08:48:11.018Z,29.02
2019-02-25T08:50:37.207Z,29.87
2019-02-25T08:53:03.504Z,27.98
2019-02-25T08:55:29.818Z,25.32
2019-02-25T08:57:56.111Z,27.07
2019-02-25T09:00:22.491Z,28.17
2019-02-25T09:02:51.664Z,29.50
2019-02-25T09:05:18.060Z,28.85
2019-02-25T09:07:44.295Z,29.02
2019-02-25T09:10:13.428Z,28.67
2019-02-25T09:12:44.356Z,30.05
2019-02-25T09:15:14.111Z,29.50
2019-02-25T09:17:43.810Z,28.85
2019-02-25T09:20:10.800Z,28.35
2019-02-25T09:22:37.075Z,25.72
2019-02-25T09:25:06.261Z,28.75
2019-02-25T09:27:32.550Z,28.98
2019-02-25T09:29:58.839Z,28.60
2019-02-25T09:32:25.207Z,28.52
2019-02-25T09:34:51.463Z,30.60
2019-02-25T09:37:17.771Z,26.52
2019-02-25T09:39:44.063Z,29.80
2019-02-25T09:42:10.338Z,30.12
2019-02-25T09:44:38.005Z,29.05
2019-02-25T09:47:05.229Z,29.18
2019-02-25T09:49:31.619Z,29.15
2019-02-25T09:51:57.828Z,28.55
2019-02-25T09:54:24.076Z,28.75
2019-02-25T09:56:50.346Z,28.30
2019-02-25T09:59:16.637Z,27.20
2019-02-25T10:01:42.992Z,28.73
2019-02-25T10:04:09.237Z,28.15
2019-02-25T10:06:35.522Z,26.48
2019-02-25T10:09:01.961Z,28.38
2019-02-25T10:11:28.341Z,28.45
2019-02-25T10:13:54.597Z,28.47
2019-02-25T10:16:20.955Z,27.55
2019-02-25T10:18:47.220Z,26.57
2019-02-25T10:21:13.485Z,27.40
2019-02-25T10:23:40.514Z,27.07
2019-02-25T10:26:06.829Z,26.02
2019-02-25T10:28:33.105Z,26.20
2019-02-25T10:30:59.397Z,25.62
2019-02-25T10:33:26.040Z,25.65
2019-02-25T10:35:52.656Z,27.35
2019-02-25T10:38:20.007Z,27.17
2019-02-25T10:40:47.837Z,27.25
2019-02-25T10:43:15.554Z,26.07
2019-02-25T10:45:43.403Z,25.40
2019-02-25T10:48:09.954Z,26.00
2019-02-25T10:50:38.443Z,22.50
2019-02-25T10:53:07.452Z,25.45
2019-02-25T10:55:44.964Z,24.23
2019-02-25T10:58:11.847Z,24.72
2019-02-25T11:00:39.580Z,25.90
2019-02-25T11:03:06.685Z,26.07
2019-02-25T11:05:33.197Z,24.70
2019-02-25T11:08:00.872Z,24.30
2019-02-25T11:10:35.183Z,24.85
2019-02-25T11:13:02.184Z,25.23
2019-02-25T11:15:31.108Z,24.40
2019-02-25T11:17:57.383Z,25.17
2019-02-25T11:20:23.729Z,25.77
2019-02-25T11:22:50.054Z,24.10
2019-02-25T11:25:16.765Z,24.12
2019-02-25T11:27:43.049Z,25.50
2019-02-25T11:30:14.797Z,22.60
2019-02-25T11:32:42.253Z,26.20
2019-02-25T11:35:10.762Z,25.37
2019-02-25T11:37:37.603Z,23.22
2019-02-25T11:40:12.528Z,25.20
2019-02-25T11:42:38.786Z,24.70
2019-02-25T11:45:08.624Z,24.77
2019-02-25T11:47:35.063Z,26.15
2019-02-25T11:50:01.695Z,24.77
2019-02-25T11:52:28.278Z,26.37
2019-02-25T11:54:54.543Z,24.87
2019-02-25T11:57:20.958Z,26.77
2019-02-25T11:59:47.226Z,25.82
2019-02-25T12:02:13.480Z,25.23
2019-02-25T12:04:39.772Z,24.47
2019-02-25T12:07:06.462Z,26.17
2019-02-25T12:09:32.780Z,26.40
2019-02-25T12:11:59.293Z,25.88
2019-02-25T12:14:26.451Z,26.15
2019-02-25T12:16:52.764Z,25.82
2019-02-25T12:19:19.029Z,23.80
2019-02-25T12:21:45.546Z,26.02
2019-02-25T12:24:11.829Z,24.92
2019-02-25T12:26:38.123Z,22.95
2019-02-25T12:29:10.630Z,21.90
2019-02-25T12:31:32.764Z,23.05
2019-02-25T12:33:59.038Z,22.27
2019-02-25T12:36:25.295Z,21.02
2019-02-25T12:38:51.599Z,19.85
2019-02-25T12:41:17.907Z,20.92
2019-02-25T12:43:44.221Z,19.40
2019-02-25T12:46:10.506Z,21.00
2019-02-25T12:48:36.800Z,21.12
2019-02-25T12:51:03.074Z,19.82
2019-02-25T12:53:29.346Z,19.98
2019-02-25T12:55:55.686Z,18.82
2019-02-25T12:58:21.989Z,17.00
2019-02-25T13:00:48.251Z,17.25
2019-02-25T13:03:14.605Z,16.05
2019-02-25T13:05:41.119Z,16.67
2019-02-25T13:08:07.352Z,14.93
2019-02-25T13:10:33.721Z,15.28
2019-02-25T13:13:00.006Z,14.98
2019-02-25T13:15:26.380Z,15.70
2019-02-25T13:17:53.160Z,16.20
2019-02-25T13:20:19.418Z,15.63
2019-02-25T13:22:45.669Z,16.50
2019-02-25T13:25:14.063Z,15.32
2019-02-25T13:27:40.586Z,13.40
2019-02-25T13:30:13.012Z,14.60
2019-02-25T13:32:39.292Z,15.15
2019-02-25T13:35:07.793Z,15.23
2019-02-25T13:37:34.049Z,15.30
2019-02-25T13:40:01.780Z,14.18
2019-02-25T13:42:28.047Z,14.98
2019-02-25T13:44:54.333Z,15.95
2019-02-25T13:47:20.621Z,15.68
2019-02-25T13:49:49.091Z,16.12
2019-02-25T13:52:15.403Z,16.52
2019-02-25T13:54:43.785Z,17.60
2019-02-25T13:57:10.382Z,16.65
2019-02-25T13:59:37.101Z,15.93
2019-02-25T14:02:03.384Z,15.90
2019-02-25T14:04:29.672Z,15.28
2019-02-25T14:06:55.942Z,15.85
2019-02-25T14:09:22.183Z,15.80
2019-02-25T14:11:48.535Z,18.12
2019-02-25T14:14:14.762Z,16.10
2019-02-25T14:16:41.023Z,17.42
2019-02-25T14:19:07.485Z,17.75
2019-02-25T14:21:34.535Z,18.92
2019-02-25T14:24:01.836Z,17.85
2019-02-25T14:26:28.123Z,19.07
2019-02-25T14:28:54.482Z,17.35
2019-02-25T14:31:20.948Z,18.02
2019-02-25T14:33:52.078Z,18.30
2019-02-25T14:36:15.337Z,18.07
2019-02-25T14:38:41.593Z,17.55
2019-02-25T14:41:11.698Z,19.12
2019-02-25T14:43:42.791Z,18.55
2019-02-25T14:46:07.757Z,18.40
2019-02-25T14:48:35.234Z,17.98
2019-02-25T14:51:02.124Z,17.73
2019-02-25T14:53:29.666Z,17.70
2019-02-25T14:55:58.196Z,18.37
2019-02-25T14:58:24.084Z,17.90
2019-02-25T15:00:50.427Z,17.90
2019-02-25T15:03:18.091Z,18.10
2019-02-25T15:05:44.853Z,17.80
2019-02-25T15:08:11.171Z,17.50
2019-02-25T15:10:38.549Z,15.45
2019-02-25T15:13:06.693Z,17.48
2019-02-25T15:15:34.833Z,16.67
2019-02-25T15:18:01.632Z,16.37
2019-02-25T15:20:28.853Z,17.52
2019-02-25T15:22:55.233Z,17.40
2019-02-25T15:25:21.535Z,16.70
2019-02-25T15:27:47.875Z,17.95
2019-02-25T15:30:25.680Z,16.85
2019-02-25T15:32:55.582Z,17.57
2019-02-25T15:35:20.952Z,18.17
2019-02-25T15:37:55.171Z,18.05
2019-02-25T15:40:22.711Z,16.80
2019-02-25T15:43:04.714Z,17.73
2019-02-25T15:45:33.441Z,16.40
2019-02-25T15:48:01.181Z,19.12
2019-02-25T15:50:27.433Z,19.25
2019-02-25T15:52:53.795Z,20.17
2019-02-25T15:55:21.247Z,17.85
2019-02-25T15:57:48.197Z,21.07
2019-02-25T16:00:19.064Z,20.37
2019-02-25T16:02:48.542Z,19.40
2019-02-25T16:05:14.915Z,18.37
2019-02-25T16:07:41.249Z,20.75
2019-02-25T16:10:11.879Z,22.98
2019-02-25T16:12:38.464Z,22.87
2019-02-25T16:15:12.873Z,19.75
2019-02-25T16:17:40.119Z,21.37
2019-02-25T16:20:09.392Z,20.85
2019-02-25T16:22:36.395Z,22.52
2019-02-25T16:25:07.430Z,21.25
2019-02-25T16:27:34.707Z,23.18
2019-02-25T16:30:02.939Z,23.40
2019-02-25T16:32:29.075Z,23.40
2019-02-25T16:34:56.007Z,23.45
2019-02-25T16:37:24.937Z,22.35
2019-02-25T16:39:51.562Z,20.85
2019-02-25T16:42:17.962Z,24.70
2019-02-25T16:44:44.284Z,21.15
2019-02-25T16:47:11.799Z,22.15
2019-02-25T16:49:38.540Z,24.50
2019-02-25T16:52:07.864Z,24.90
2019-02-25T16:54:34.113Z,24.02
2019-02-25T16:57:00.394Z,23.52
2019-02-25T16:59:26.707Z,25.32
2019-02-25T17:01:55.864Z,22.70
2019-02-25T17:04:23.303Z,26.00
2019-02-25T17:06:51.317Z,23.45
2019-02-25T17:09:20.416Z,25.65
2019-02-25T17:11:46.774Z,22.87
2019-02-25T17:14:14.878Z,23.32
2019-02-25T17:16:41.579Z,24.27
2019-02-25T17:19:07.888Z,25.88
2019-02-25T17:21:34.463Z,25.55
2019-02-25T17:24:02.935Z,25.08
2019-02-25T17:26:29.161Z,23.27
2019-02-25T17:28:55.677Z,26.48
2019-02-25T17:31:21.943Z,23.42
2019-02-25T17:33:49.271Z,26.12
2019-02-25T17:36:16.884Z,23.27
2019-02-25T17:38:44.923Z,24.85
2019-02-25T17:41:13.165Z,24.92
2019-02-25T17:43:40.851Z,25.80
2019-02-25T17:46:09.259Z,25.97
2019-02-25T17:48:36.143Z,24.92
2019-02-25T17:51:03.994Z,24.92
2019-02-25T17:53:31.101Z,26.50
2019-02-25T17:56:00.309Z,22.70
2019-02-25T17:58:26.558Z,26.00
2019-02-25T18:00:54.197Z,25.17
2019-02-25T18:03:21.879Z,24.12
2019-02-25T18:05:48.900Z,25.23
2019-02-25T18:08:15.529Z,27.35
2019-02-25T18:10:43.192Z,26.80
2019-02-25T18:13:10.883Z,27.48
2019-02-25T18:15:37.546Z,29.92
2019-02-25T18:18:07.016Z,29.82
2019-02-25T18:20:31.900Z,29.75
2019-02-25T18:22:58.417Z,29.27
2019-02-25T18:25:24.679Z,30.43
2019-02-25T18:27:51.950Z,30.02
2019-02-25T18:30:28.959Z,29.57
2019-02-25T18:32:58.235Z,30.37
2019-02-25T18:35:23.495Z,32.85
2019-02-25T18:37:49.770Z,31.40
2019-02-25T18:40:18.049Z,33.23
2019-02-25T18:42:44.466Z,33.23
2019-02-25T18:45:15.670Z,31.33
2019-02-25T18:47:41.635Z,32.42
2019-02-25T18:50:19.109Z,30.72
2019-02-25T18:52:44.232Z,41.02
2019-02-25T18:55:14.011Z,32.23
2019-02-25T18:57:41.716Z,31.65
2019-02-25T19:00:19.971Z,30.95
2019-02-25T19:02:51.367Z,32.23
2019-02-25T19:05:17.971Z,28.85
2019-02-25T19:07:44.347Z,28.85
2019-02-25T19:10:16.007Z,28.17
2019-02-25T19:12:41.565Z,31.12
2019-02-25T19:15:09.955Z,32.38
2019-02-25T19:17:36.493Z,30.57
2019-02-25T19:20:05.788Z,31.85
2019-02-25T19:22:33.338Z,26.70
2019-02-25T19:25:00.300Z,30.52
2019-02-25T19:27:27.765Z,31.87
2019-02-25T19:29:58.644Z,28.45
2019-02-25T19:32:25.234Z,32.85
2019-02-25T19:34:53.607Z,30.37
2019-02-25T19:37:19.678Z,28.57
2019-02-25T19:39:48.854Z,31.68
2019-02-25T19:42:18.171Z,32.30
2019-02-25T19:44:44.527Z,32.28
2019-02-25T19:47:11.858Z,31.85
2019-02-25T19:49:41.201Z,29.07
2019-02-25T19:52:09.767Z,31.35
2019-02-25T19:54:38.588Z,31.27
2019-02-25T19:57:08.020Z,32.23
2019-02-25T19:59:34.275Z,35.98
2019-02-25T20:02:00.607Z,34.48
2019-02-25T20:04:26.953Z,35.25
2019-02-25T20:06:53.699Z,35.92
2019-02-25T20:09:21.409Z,36.65
2019-02-25T20:11:47.701Z,35.63
2019-02-25T20:14:16.519Z,30.88
2019-02-25T20:16:42.258Z,36.58
2019-02-25T20:19:08.584Z,34.65
2019-02-25T20:21:34.859Z,36.05
2019-02-25T20:24:01.170Z,36.58
2019-02-25T20:26:27.776Z,35.70
2019-02-25T20:28:54.083Z,32.50
2019-02-25T20:31:20.393Z,31.85
2019-02-25T20:33:46.681Z,30.12
2019-02-25T20:36:12.961Z,34.63
2019-02-25T20:38:39.798Z,35.48
2019-02-25T20:41:06.434Z,30.23
2019-02-25T20:43:32.738Z,40.08
2019-02-25T20:46:01.082Z,37.58
2019-02-25T20:48:27.561Z,34.73
2019-02-25T20:50:53.961Z,34.95
2019-02-25T20:53:20.376Z,37.95
2019-02-25T20:55:48.240Z,39.98
2019-02-25T20:58:16.879Z,39.00
2019-02-25T21:00:44.112Z,38.65
2019-02-25T21:03:13.973Z,38.53
2019-02-25T21:05:39.969Z,36.45
2019-02-25T21:08:06.202Z,35.60
2019-02-25T21:10:35.374Z,36.00
2019-02-25T21:13:02.216Z,36.90
2019-02-25T21:15:28.730Z,34.40
2019-02-25T21:17:56.835Z,34.58
2019-02-25T21:20:23.783Z,33.90
2019-02-25T21:22:52.819Z,35.95
2019-02-25T21:25:22.167Z,34.03
2019-02-25T21:27:48.535Z,37.25
2019-02-25T21:30:20.044Z,35.70
2019-02-25T21:32:47.414Z,37.08
2019-02-25T21:35:15.647Z,39.33
2019-02-25T21:37:45.605Z,37.48
2019-02-25T21:40:22.361Z,32.88
2019-02-25T21:42:51.321Z,37.28
2019-02-25T21:45:20.019Z,38.00
2019-02-25T21:47:47.625Z,39.00
2019-02-25T21:50:17.246Z,35.75
2019-02-25T21:52:45.618Z,37.35
2019-02-25T21:55:11.876Z,40.43
2019-02-25T21:57:38.155Z,35.28
2019-02-25T22:00:14.115Z,36.98
2019-02-25T22:02:41.423Z,35.90
2019-02-25T22:05:11.667Z,40.12
2019-02-25T22:07:37.536Z,38.63
2019-02-25T22:10:11.804Z,38.42
2019-02-25T22:12:39.968Z,37.88
2019-02-25T22:15:08.711Z,34.27
2019-02-25T22:17:34.999Z,37.38
2019-02-25T22:20:02.637Z,36.23
2019-02-25T22:22:31.605Z,36.38
2019-02-25T22:25:01.283Z,38.73
2019-02-25T22:27:25.993Z,37.58
2019-02-25T22:29:52.258Z,34.73
2019-02-25T22:32:18.681Z,37.73
2019-02-25T22:34:45.153Z,38.42
2019-02-25T22:37:14.557Z,37.23
2019-02-25T22:39:40.895Z,36.55
2019-02-25T22:42:09.466Z,39.08
2019-02-25T22:44:35.495Z,39.80
2019-02-25T22:47:05.168Z,38.67
2019-02-25T22:49:30.878Z,36.10
2019-02-25T22:52:00.476Z,41.63
2019-02-25T22:54:26.765Z,35.70
2019-02-25T22:56:53.123Z,42.33
2019-02-25T22:59:20.744Z,40.12
2019-02-25T23:01:47.125Z,37.88
2019-02-25T23:04:15.552Z,42.35
2019-02-25T23:06:42.444Z,41.20
2019-02-25T23:09:14.021Z,41.18
2019-02-25T23:11:39.824Z,42.93
2019-02-25T23:14:07.737Z,43.87
2019-02-25T23:16:34.395Z,42.95
2019-02-25T23:19:00.657Z,43.52
2019-02-25T23:21:28.803Z,39.20
2019-02-25T23:23:55.896Z,41.92
2019-02-25T23:26:23.117Z,42.23
2019-02-25T23:28:50.950Z,43.63
2019-02-25T23:31:17.432Z,40.25
2019-02-25T23:33:44.372Z,43.00
2019-02-25T23:36:14.805Z,43.92
2019-02-25T23:38:39.845Z,47.00
2019-02-25T23:41:07.622Z,45.85
2019-02-25T23:43:37.828Z,41.63
2019-02-25T23:46:04.121Z,42.78
2019-02-25T23:48:33.000Z,42.60
2019-02-25T23:51:01.258Z,44.00
2019-02-25T23:53:28.881Z,40.88
2019-02-25T23:55:56.497Z,40.78
2019-02-25T23:58:24.082Z,42.53
